sensor_id;sensor_type;location;lat;lon;timestamp;P1;durP1;ratioP1;P2;durP2;ratioP2
50104;SDS011;47690;39.202;-77.198;2022-09-09T00:06:24;1.10;;;1.05;;
50104;SDS011;47690;39.202;-77.198;2022-09-09T00:09:04;1.65;;;1.40;;
50104;SDS011;47690;39.202;-77.198;2022-09-09T00:11:51;1.50;;;1.38;;
50104;SDS011;47690;39.202;-77.198;2022-09-09T00:17:26;1.85;;;1.50;;
50104;SDS011;47690;39.202;-77.198;2022-09-09T00:20:12;1.13;;;1.13;;
50104;SDS011;47690;39.202;-77.198;2022-09-09T00:23:14;2.60;;;1.40;;
50104;SDS011;47690;39.202;-77.198;2022-09-09T00:28:27;1.55;;;1.45;;
50104;SDS011;47690;39.202;-77.198;2022-09-09T00:31:20;1.55;;;1.45;;
50104;SDS011;47690;39.202;-77.198;2022-09-09T00:34:02;1.60;;;1.50;;
50104;SDS011;47690;39.202;-77.198;2022-09-09T00:36:48;1.85;;;1.48;;
50104;SDS011;47690;39.202;-77.198;2022-09-09T00:42:33;2.00;;;1.55;;
50104;SDS011;47690;39.202;-77.198;2022-09-09T00:48:25;1.73;;;1.60;;
50104;SDS011;47690;39.202;-77.198;2022-09-09T00:51:05;3.05;;;1.85;;
50104;SDS011;47690;39.202;-77.198;2022-09-09T01:05:55;1.50;;;1.35;;
50104;SDS011;47690;39.202;-77.198;2022-09-09T01:11:22;1.65;;;1.30;;
50104;SDS011;47690;39.202;-77.198;2022-09-09T01:14:05;1.55;;;1.45;;
50104;SDS011;47690;39.202;-77.198;2022-09-09T01:16:50;2.80;;;1.70;;
50104;SDS011;47690;39.202;-77.198;2022-09-09T01:27:56;3.28;;;1.80;;
50104;SDS011;47690;39.202;-77.198;2022-09-09T01:30:31;3.00;;;1.40;;
50104;SDS011;47690;39.202;-77.198;2022-09-09T01:33:17;1.90;;;1.70;;
50104;SDS011;47690;39.202;-77.198;2022-09-09T01:38:43;1.90;;;1.73;;
50104;SDS011;47690;39.202;-77.198;2022-09-09T01:44:23;2.83;;;1.70;;
50104;SDS011;47690;39.202;-77.198;2022-09-09T01:47:03;1.63;;;1.52;;
50104;SDS011;47690;39.202;-77.198;2022-09-09T01:49:55;2.13;;;1.60;;
50104;SDS011;47690;39.202;-77.198;2022-09-09T01:52:31;2.33;;;1.38;;
50104;SDS011;47690;39.202;-77.198;2022-09-09T01:55:15;2.13;;;1.20;;
50104;SDS011;47690;39.202;-77.198;2022-09-09T02:00:25;2.75;;;2.03;;
50104;SDS011;47690;39.202;-77.198;2022-09-09T02:06:14;1.35;;;1.25;;
50104;SDS011;47690;39.202;-77.198;2022-09-09T02:08:58;1.52;;;1.38;;
50104;SDS011;47690;39.202;-77.198;2022-09-09T02:11:35;1.50;;;1.40;;
50104;SDS011;47690;39.202;-77.198;2022-09-09T02:14:24;1.75;;;1.40;;
50104;SDS011;47690;39.202;-77.198;2022-09-09T02:17:07;2.63;;;1.47;;
50104;SDS011;47690;39.202;-77.198;2022-09-09T02:26:31;1.40;;;1.30;;
50104;SDS011;47690;39.202;-77.198;2022-09-09T02:29:33;2.10;;;1.50;;
50104;SDS011;47690;39.202;-77.198;2022-09-09T02:32:51;2.22;;;1.40;;
50104;SDS011;47690;39.202;-77.198;2022-09-09T02:35:47;1.83;;;1.23;;
50104;SDS011;47690;39.202;-77.198;2022-09-09T02:38:57;3.00;;;1.52;;
50104;SDS011;47690;39.202;-77.198;2022-09-09T02:41:35;1.40;;;1.30;;
50104;SDS011;47690;39.202;-77.198;2022-09-09T02:44:19;1.60;;;1.50;;
50104;SDS011;47690;39.202;-77.198;2022-09-09T02:47:16;2.00;;;1.30;;
50104;SDS011;47690;39.202;-77.198;2022-09-09T02:58:20;2.90;;;1.50;;
50104;SDS011;47690;39.202;-77.198;2022-09-09T03:01:25;2.55;;;1.35;;
50104;SDS011;47690;39.202;-77.198;2022-09-09T03:04:05;1.80;;;1.50;;
50104;SDS011;47690;39.202;-77.198;2022-09-09T03:06:58;1.23;;;0.90;;
50104;SDS011;47690;39.202;-77.198;2022-09-09T03:09:58;3.10;;;1.38;;
50104;SDS011;47690;39.202;-77.198;2022-09-09T03:12:53;1.30;;;1.20;;
50104;SDS011;47690;39.202;-77.198;2022-09-09T03:15:35;1.85;;;1.40;;
50104;SDS011;47690;39.202;-77.198;2022-09-09T03:18:23;1.25;;;1.23;;
50104;SDS011;47690;39.202;-77.198;2022-09-09T03:20:59;1.55;;;1.45;;
50104;SDS011;47690;39.202;-77.198;2022-09-09T03:23:40;1.98;;;1.40;;
50104;SDS011;47690;39.202;-77.198;2022-09-09T03:26:26;3.05;;;1.50;;
50104;SDS011;47690;39.202;-77.198;2022-09-09T03:28:59;1.67;;;1.58;;
50104;SDS011;47690;39.202;-77.198;2022-09-09T03:32:05;1.33;;;1.20;;
50104;SDS011;47690;39.202;-77.198;2022-09-09T03:34:45;1.83;;;1.50;;
50104;SDS011;47690;39.202;-77.198;2022-09-09T03:37:22;2.45;;;1.42;;
50104;SDS011;47690;39.202;-77.198;2022-09-09T03:39:55;2.60;;;1.30;;
50104;SDS011;47690;39.202;-77.198;2022-09-09T03:42:29;3.42;;;1.42;;
50104;SDS011;47690;39.202;-77.198;2022-09-09T03:45:05;1.65;;;1.55;;
50104;SDS011;47690;39.202;-77.198;2022-09-09T03:47:58;2.38;;;1.30;;
50104;SDS011;47690;39.202;-77.198;2022-09-09T03:50:30;2.08;;;1.55;;
50104;SDS011;47690;39.202;-77.198;2022-09-09T03:53:12;1.50;;;1.38;;
50104;SDS011;47690;39.202;-77.198;2022-09-09T03:55:55;1.20;;;1.13;;
50104;SDS011;47690;39.202;-77.198;2022-09-09T03:58:39;1.35;;;1.10;;
50104;SDS011;47690;39.202;-77.198;2022-09-09T04:01:18;1.77;;;1.60;;
50104;SDS011;47690;39.202;-77.198;2022-09-09T04:03:49;2.08;;;1.60;;
50104;SDS011;47690;39.202;-77.198;2022-09-09T04:06:26;1.92;;;1.40;;
50104;SDS011;47690;39.202;-77.198;2022-09-09T04:09:06;3.42;;;1.23;;
50104;SDS011;47690;39.202;-77.198;2022-09-09T04:12:01;4.85;;;1.52;;
50104;SDS011;47690;39.202;-77.198;2022-09-09T04:14:38;1.30;;;1.20;;
50104;SDS011;47690;39.202;-77.198;2022-09-09T04:17:37;3.40;;;1.52;;
50104;SDS011;47690;39.202;-77.198;2022-09-09T04:20:34;1.33;;;1.30;;
50104;SDS011;47690;39.202;-77.198;2022-09-09T04:23:30;2.78;;;1.33;;
50104;SDS011;47690;39.202;-77.198;2022-09-09T04:26:15;1.25;;;1.15;;
50104;SDS011;47690;39.202;-77.198;2022-09-09T04:33:24;1.50;;;1.40;;
50104;SDS011;47690;39.202;-77.198;2022-09-09T04:39:15;3.75;;;1.55;;
50104;SDS011;47690;39.202;-77.198;2022-09-09T04:42:05;1.50;;;1.23;;
50104;SDS011;47690;39.202;-77.198;2022-09-09T04:44:37;2.25;;;1.30;;
50104;SDS011;47690;39.202;-77.198;2022-09-09T04:47:26;2.75;;;1.60;;
50104;SDS011;47690;39.202;-77.198;2022-09-09T04:50:59;1.40;;;1.30;;
50104;SDS011;47690;39.202;-77.198;2022-09-09T04:53:33;1.98;;;1.55;;
50104;SDS011;47690;39.202;-77.198;2022-09-09T04:57:10;2.72;;;1.63;;
50104;SDS011;47690;39.202;-77.198;2022-09-09T04:59:55;2.38;;;1.45;;
50104;SDS011;47690;39.202;-77.198;2022-09-09T05:02:29;3.00;;;1.52;;
50104;SDS011;47690;39.202;-77.198;2022-09-09T05:05:06;3.28;;;1.58;;
50104;SDS011;47690;39.202;-77.198;2022-09-09T05:07:46;2.67;;;1.27;;
50104;SDS011;47690;39.202;-77.198;2022-09-09T05:10:27;2.75;;;1.50;;
50104;SDS011;47690;39.202;-77.198;2022-09-09T05:13:01;2.65;;;1.30;;
50104;SDS011;47690;39.202;-77.198;2022-09-09T05:15:35;1.60;;;1.50;;
50104;SDS011;47690;39.202;-77.198;2022-09-09T05:18:17;3.70;;;1.40;;
50104;SDS011;47690;39.202;-77.198;2022-09-09T05:20:50;3.97;;;1.70;;
50104;SDS011;47690;39.202;-77.198;2022-09-09T05:23:20;1.60;;;1.50;;
50104;SDS011;47690;39.202;-77.198;2022-09-09T05:25:57;2.55;;;1.42;;
50104;SDS011;47690;39.202;-77.198;2022-09-09T05:28:33;3.88;;;1.60;;
50104;SDS011;47690;39.202;-77.198;2022-09-09T05:31:07;3.45;;;1.23;;
50104;SDS011;47690;39.202;-77.198;2022-09-09T05:33:55;1.70;;;1.60;;
50104;SDS011;47690;39.202;-77.198;2022-09-09T05:36:34;1.70;;;1.50;;
50104;SDS011;47690;39.202;-77.198;2022-09-09T05:39:07;2.65;;;1.75;;
50104;SDS011;47690;39.202;-77.198;2022-09-09T05:41:54;2.28;;;1.50;;
50104;SDS011;47690;39.202;-77.198;2022-09-09T05:44:31;2.22;;;1.50;;
50104;SDS011;47690;39.202;-77.198;2022-09-09T05:47:02;3.05;;;1.30;;
50104;SDS011;47690;39.202;-77.198;2022-09-09T05:49:31;3.88;;;1.83;;
50104;SDS011;47690;39.202;-77.198;2022-09-09T05:52:03;2.67;;;1.50;;
50104;SDS011;47690;39.202;-77.198;2022-09-09T05:54:51;2.45;;;1.40;;
50104;SDS011;47690;39.202;-77.198;2022-09-09T05:57:27;2.03;;;1.48;;
50104;SDS011;47690;39.202;-77.198;2022-09-09T06:00:02;1.50;;;1.40;;
50104;SDS011;47690;39.202;-77.198;2022-09-09T06:02:50;1.52;;;1.42;;
50104;SDS011;47690;39.202;-77.198;2022-09-09T06:05:22;2.40;;;1.55;;
50104;SDS011;47690;39.202;-77.198;2022-09-09T06:08:02;2.58;;;1.65;;
50104;SDS011;47690;39.202;-77.198;2022-09-09T06:10:33;1.85;;;1.40;;
50104;SDS011;47690;39.202;-77.198;2022-09-09T06:13:03;1.50;;;1.40;;
50104;SDS011;47690;39.202;-77.198;2022-09-09T06:15:59;1.75;;;1.50;;
50104;SDS011;47690;39.202;-77.198;2022-09-09T06:18:39;2.05;;;1.67;;
50104;SDS011;47690;39.202;-77.198;2022-09-09T06:21:27;1.88;;;1.38;;
50104;SDS011;47690;39.202;-77.198;2022-09-09T06:24:03;4.13;;;1.75;;
50104;SDS011;47690;39.202;-77.198;2022-09-09T06:26:46;2.08;;;1.60;;
50104;SDS011;47690;39.202;-77.198;2022-09-09T06:29:22;2.08;;;1.45;;
50104;SDS011;47690;39.202;-77.198;2022-09-09T06:32:01;2.25;;;1.60;;
50104;SDS011;47690;39.202;-77.198;2022-09-09T06:34:33;1.60;;;1.50;;
50104;SDS011;47690;39.202;-77.198;2022-09-09T06:37:03;1.50;;;1.40;;
50104;SDS011;47690;39.202;-77.198;2022-09-09T06:39:46;2.08;;;1.60;;
50104;SDS011;47690;39.202;-77.198;2022-09-09T06:42:17;2.17;;;1.40;;
50104;SDS011;47690;39.202;-77.198;2022-09-09T06:45:05;2.10;;;1.60;;
50104;SDS011;47690;39.202;-77.198;2022-09-09T06:48:01;1.58;;;1.38;;
50104;SDS011;47690;39.202;-77.198;2022-09-09T06:50:31;2.28;;;1.67;;
50104;SDS011;47690;39.202;-77.198;2022-09-09T06:53:02;4.50;;;1.70;;
50104;SDS011;47690;39.202;-77.198;2022-09-09T06:55:34;1.60;;;1.50;;
50104;SDS011;47690;39.202;-77.198;2022-09-09T06:58:08;2.65;;;1.55;;
50104;SDS011;47690;39.202;-77.198;2022-09-09T07:00:44;1.55;;;1.45;;
50104;SDS011;47690;39.202;-77.198;2022-09-09T07:03:17;1.75;;;1.65;;
50104;SDS011;47690;39.202;-77.198;2022-09-09T07:05:53;3.17;;;1.60;;
50104;SDS011;47690;39.202;-77.198;2022-09-09T07:08:27;1.48;;;1.38;;
50104;SDS011;47690;39.202;-77.198;2022-09-09T07:11:03;1.42;;;1.20;;
50104;SDS011;47690;39.202;-77.198;2022-09-09T07:13:50;3.88;;;1.48;;
50104;SDS011;47690;39.202;-77.198;2022-09-09T07:16:23;2.35;;;1.90;;
50104;SDS011;47690;39.202;-77.198;2022-09-09T07:18:57;3.25;;;1.60;;
50104;SDS011;47690;39.202;-77.198;2022-09-09T07:21:32;1.65;;;1.55;;
50104;SDS011;47690;39.202;-77.198;2022-09-09T07:24:04;1.60;;;1.50;;
50104;SDS011;47690;39.202;-77.198;2022-09-09T07:26:45;1.60;;;1.50;;
50104;SDS011;47690;39.202;-77.198;2022-09-09T07:29:23;2.38;;;1.35;;
50104;SDS011;47690;39.202;-77.198;2022-09-09T07:31:55;1.73;;;1.63;;
50104;SDS011;47690;39.202;-77.198;2022-09-09T07:34:30;1.38;;;1.27;;
50104;SDS011;47690;39.202;-77.198;2022-09-09T07:37:02;2.15;;;1.70;;
50104;SDS011;47690;39.202;-77.198;2022-09-09T07:39:35;2.50;;;1.50;;
50104;SDS011;47690;39.202;-77.198;2022-09-09T07:42:10;4.07;;;1.50;;
50104;SDS011;47690;39.202;-77.198;2022-09-09T07:44:44;2.00;;;1.60;;
50104;SDS011;47690;39.202;-77.198;2022-09-09T07:47:19;2.20;;;1.38;;
50104;SDS011;47690;39.202;-77.198;2022-09-09T07:49:51;4.65;;;1.70;;
50104;SDS011;47690;39.202;-77.198;2022-09-09T07:52:27;3.50;;;1.70;;
50104;SDS011;47690;39.202;-77.198;2022-09-09T07:55:02;2.03;;;1.80;;
50104;SDS011;47690;39.202;-77.198;2022-09-09T07:57:39;2.38;;;1.45;;
50104;SDS011;47690;39.202;-77.198;2022-09-09T08:00:15;4.10;;;1.65;;
50104;SDS011;47690;39.202;-77.198;2022-09-09T08:02:51;2.00;;;1.65;;
50104;SDS011;47690;39.202;-77.198;2022-09-09T08:05:22;2.35;;;1.75;;
50104;SDS011;47690;39.202;-77.198;2022-09-09T08:07:58;2.08;;;1.50;;
50104;SDS011;47690;39.202;-77.198;2022-09-09T08:10:29;1.85;;;1.67;;
50104;SDS011;47690;39.202;-77.198;2022-09-09T08:12:59;2.30;;;1.67;;
50104;SDS011;47690;39.202;-77.198;2022-09-09T08:15:46;3.65;;;1.27;;
50104;SDS011;47690;39.202;-77.198;2022-09-09T08:18:17;3.17;;;1.52;;
50104;SDS011;47690;39.202;-77.198;2022-09-09T08:20:47;4.18;;;1.80;;
50104;SDS011;47690;39.202;-77.198;2022-09-09T08:23:19;1.77;;;1.67;;
50104;SDS011;47690;39.202;-77.198;2022-09-09T08:25:51;4.53;;;1.63;;
50104;SDS011;47690;39.202;-77.198;2022-09-09T08:28:24;1.60;;;1.50;;
50104;SDS011;47690;39.202;-77.198;2022-09-09T08:30:55;2.85;;;1.70;;
50104;SDS011;47690;39.202;-77.198;2022-09-09T08:33:29;1.70;;;1.35;;
50104;SDS011;47690;39.202;-77.198;2022-09-09T08:35:59;3.00;;;1.65;;
50104;SDS011;47690;39.202;-77.198;2022-09-09T08:38:30;1.60;;;1.50;;
50104;SDS011;47690;39.202;-77.198;2022-09-09T08:41:12;2.88;;;1.63;;
50104;SDS011;47690;39.202;-77.198;2022-09-09T08:43:45;1.90;;;1.80;;
50104;SDS011;47690;39.202;-77.198;2022-09-09T08:49:05;2.10;;;1.70;;
50104;SDS011;47690;39.202;-77.198;2022-09-09T08:51:43;1.70;;;1.60;;
50104;SDS011;47690;39.202;-77.198;2022-09-09T08:54:14;1.83;;;1.60;;
50104;SDS011;47690;39.202;-77.198;2022-09-09T08:57:20;1.38;;;1.27;;
50104;SDS011;47690;39.202;-77.198;2022-09-09T08:59:58;2.85;;;1.52;;
50104;SDS011;47690;39.202;-77.198;2022-09-09T09:05:28;1.67;;;1.58;;
50104;SDS011;47690;39.202;-77.198;2022-09-09T09:10:54;2.60;;;1.50;;
50104;SDS011;47690;39.202;-77.198;2022-09-09T09:16:27;2.85;;;1.45;;
50104;SDS011;47690;39.202;-77.198;2022-09-09T09:19:03;1.98;;;1.50;;
50104;SDS011;47690;39.202;-77.198;2022-09-09T09:21:36;5.43;;;1.38;;
50104;SDS011;47690;39.202;-77.198;2022-09-09T09:29:54;2.17;;;1.60;;
50104;SDS011;47690;39.202;-77.198;2022-09-09T09:35:22;1.92;;;1.70;;
50104;SDS011;47690;39.202;-77.198;2022-09-09T09:37:53;1.60;;;1.50;;
50104;SDS011;47690;39.202;-77.198;2022-09-09T09:43:23;1.40;;;1.23;;
50104;SDS011;47690;39.202;-77.198;2022-09-09T09:48:45;1.35;;;1.27;;
50104;SDS011;47690;39.202;-77.198;2022-09-09T09:51:17;3.03;;;1.70;;
50104;SDS011;47690;39.202;-77.198;2022-09-09T09:53:48;2.15;;;1.48;;
50104;SDS011;47690;39.202;-77.198;2022-09-09T09:56:26;2.20;;;1.50;;
50104;SDS011;47690;39.202;-77.198;2022-09-09T09:58:57;2.15;;;1.20;;
50104;SDS011;47690;39.202;-77.198;2022-09-09T10:01:36;1.38;;;1.08;;
50104;SDS011;47690;39.202;-77.198;2022-09-09T10:04:17;5.13;;;1.40;;
50104;SDS011;47690;39.202;-77.198;2022-09-09T10:06:50;1.48;;;1.27;;
50104;SDS011;47690;39.202;-77.198;2022-09-09T10:09:30;2.38;;;1.60;;
50104;SDS011;47690;39.202;-77.198;2022-09-09T10:17:24;2.38;;;1.63;;
50104;SDS011;47690;39.202;-77.198;2022-09-09T10:20:04;3.00;;;1.50;;
50104;SDS011;47690;39.202;-77.198;2022-09-09T10:22:47;5.22;;;1.58;;
50104;SDS011;47690;39.202;-77.198;2022-09-09T10:31:01;1.83;;;1.50;;
50104;SDS011;47690;39.202;-77.198;2022-09-09T10:36:26;2.13;;;1.35;;
50104;SDS011;47690;39.202;-77.198;2022-09-09T10:39:04;1.88;;;1.33;;
50104;SDS011;47690;39.202;-77.198;2022-09-09T10:44:48;2.42;;;1.60;;
50104;SDS011;47690;39.202;-77.198;2022-09-09T10:50:11;2.78;;;1.50;;
50104;SDS011;47690;39.202;-77.198;2022-09-09T10:58:14;1.35;;;1.25;;
50104;SDS011;47690;39.202;-77.198;2022-09-09T11:00:47;1.60;;;1.50;;
50104;SDS011;47690;39.202;-77.198;2022-09-09T11:03:25;1.50;;;1.40;;
50104;SDS011;47690;39.202;-77.198;2022-09-09T11:06:04;3.42;;;1.27;;
50104;SDS011;47690;39.202;-77.198;2022-09-09T11:08:34;1.70;;;1.50;;
50104;SDS011;47690;39.202;-77.198;2022-09-09T11:18:47;2.05;;;1.30;;
50104;SDS011;47690;39.202;-77.198;2022-09-09T11:21:30;3.03;;;1.40;;
50104;SDS011;47690;39.202;-77.198;2022-09-09T11:24:12;1.50;;;1.40;;
50104;SDS011;47690;39.202;-77.198;2022-09-09T11:26:58;1.73;;;1.45;;
50104;SDS011;47690;39.202;-77.198;2022-09-09T11:40:44;1.35;;;1.30;;
50104;SDS011;47690;39.202;-77.198;2022-09-09T11:43:48;1.60;;;1.50;;
50104;SDS011;47690;39.202;-77.198;2022-09-09T11:46:49;1.42;;;1.33;;
50104;SDS011;47690;39.202;-77.198;2022-09-09T11:55:31;2.42;;;1.55;;
50104;SDS011;47690;39.202;-77.198;2022-09-09T12:00:56;1.65;;;1.55;;
50104;SDS011;47690;39.202;-77.198;2022-09-09T12:09:47;2.20;;;2.00;;
50104;SDS011;47690;39.202;-77.198;2022-09-09T12:17:31;1.90;;;1.80;;
50104;SDS011;47690;39.202;-77.198;2022-09-09T12:23:08;1.80;;;1.70;;
50104;SDS011;47690;39.202;-77.198;2022-09-09T12:25:57;2.00;;;1.80;;
50104;SDS011;47690;39.202;-77.198;2022-09-09T12:28:41;1.83;;;1.73;;
50104;SDS011;47690;39.202;-77.198;2022-09-09T12:34:20;1.98;;;1.77;;
50104;SDS011;47690;39.202;-77.198;2022-09-09T12:37:48;2.33;;;1.98;;
50104;SDS011;47690;39.202;-77.198;2022-09-09T12:41:15;2.03;;;1.83;;
50104;SDS011;47690;39.202;-77.198;2022-09-09T12:49:43;1.90;;;1.70;;
50104;SDS011;47690;39.202;-77.198;2022-09-09T12:53:02;2.13;;;1.90;;
50104;SDS011;47690;39.202;-77.198;2022-09-09T12:55:37;1.90;;;1.80;;
50104;SDS011;47690;39.202;-77.198;2022-09-09T12:58:52;2.05;;;1.85;;
50104;SDS011;47690;39.202;-77.198;2022-09-09T13:03:00;2.17;;;1.98;;
50104;SDS011;47690;39.202;-77.198;2022-09-09T13:06:25;2.45;;;2.25;;
50104;SDS011;47690;39.202;-77.198;2022-09-09T13:09:05;3.75;;;2.40;;
50104;SDS011;47690;39.202;-77.198;2022-09-09T13:11:54;2.72;;;2.45;;
50104;SDS011;47690;39.202;-77.198;2022-09-09T13:14:56;3.03;;;2.72;;
50104;SDS011;47690;39.202;-77.198;2022-09-09T13:17:31;3.10;;;2.65;;
50104;SDS011;47690;39.202;-77.198;2022-09-09T13:20:01;3.10;;;2.70;;
50104;SDS011;47690;39.202;-77.198;2022-09-09T13:22:35;2.63;;;2.42;;
50104;SDS011;47690;39.202;-77.198;2022-09-09T13:25:28;2.40;;;2.20;;
50104;SDS011;47690;39.202;-77.198;2022-09-09T13:28:30;3.10;;;2.60;;
50104;SDS011;47690;39.202;-77.198;2022-09-09T13:31:23;2.97;;;2.63;;
50104;SDS011;47690;39.202;-77.198;2022-09-09T13:34:49;2.83;;;2.33;;
50104;SDS011;47690;39.202;-77.198;2022-09-09T13:37:36;3.05;;;2.40;;
50104;SDS011;47690;39.202;-77.198;2022-09-09T13:46:35;4.32;;;2.80;;
50104;SDS011;47690;39.202;-77.198;2022-09-09T13:52:21;3.72;;;2.60;;
50104;SDS011;47690;39.202;-77.198;2022-09-09T13:54:55;2.63;;;2.42;;
50104;SDS011;47690;39.202;-77.198;2022-09-09T13:57:35;2.45;;;2.25;;
50104;SDS011;47690;39.202;-77.198;2022-09-09T14:00:17;3.30;;;2.40;;
50104;SDS011;47690;39.202;-77.198;2022-09-09T14:02:51;2.53;;;2.33;;
50104;SDS011;47690;39.202;-77.198;2022-09-09T14:05:26;3.22;;;2.47;;
50104;SDS011;47690;39.202;-77.198;2022-09-09T14:10:38;2.50;;;2.17;;
50104;SDS011;47690;39.202;-77.198;2022-09-09T14:13:12;3.20;;;2.50;;
50104;SDS011;47690;39.202;-77.198;2022-09-09T14:15:44;2.17;;;2.03;;
50104;SDS011;47690;39.202;-77.198;2022-09-09T14:18:17;2.38;;;2.17;;
50104;SDS011;47690;39.202;-77.198;2022-09-09T14:20:58;2.58;;;2.25;;
50104;SDS011;47690;39.202;-77.198;2022-09-09T14:23:38;2.33;;;2.13;;
50104;SDS011;47690;39.202;-77.198;2022-09-09T14:26:21;2.35;;;2.00;;
50104;SDS011;47690;39.202;-77.198;2022-09-09T14:28:51;2.33;;;2.13;;
50104;SDS011;47690;39.202;-77.198;2022-09-09T14:31:27;2.40;;;2.20;;
50104;SDS011;47690;39.202;-77.198;2022-09-09T14:34:02;2.72;;;2.42;;
50104;SDS011;47690;39.202;-77.198;2022-09-09T14:36:34;2.35;;;1.90;;
50104;SDS011;47690;39.202;-77.198;2022-09-09T14:39:15;2.10;;;1.95;;
50104;SDS011;47690;39.202;-77.198;2022-09-09T14:41:53;1.88;;;1.77;;
50104;SDS011;47690;39.202;-77.198;2022-09-09T14:44:25;2.22;;;2.00;;
50104;SDS011;47690;39.202;-77.198;2022-09-09T14:47:07;1.85;;;1.75;;
50104;SDS011;47690;39.202;-77.198;2022-09-09T14:50:43;2.20;;;2.00;;
50104;SDS011;47690;39.202;-77.198;2022-09-09T14:59:05;2.25;;;2.03;;
50104;SDS011;47690;39.202;-77.198;2022-09-09T15:07:10;2.30;;;2.03;;
50104;SDS011;47690;39.202;-77.198;2022-09-09T15:09:56;2.67;;;1.80;;
50104;SDS011;47690;39.202;-77.198;2022-09-09T15:12:46;2.30;;;2.03;;
50104;SDS011;47690;39.202;-77.198;2022-09-09T15:20:28;2.45;;;2.15;;
50104;SDS011;47690;39.202;-77.198;2022-09-09T15:24:49;2.65;;;2.10;;
50104;SDS011;47690;39.202;-77.198;2022-09-09T15:27:20;2.47;;;2.13;;
50104;SDS011;47690;39.202;-77.198;2022-09-09T15:29:53;2.22;;;2.03;;
50104;SDS011;47690;39.202;-77.198;2022-09-09T15:32:35;2.33;;;2.10;;
50104;SDS011;47690;39.202;-77.198;2022-09-09T15:37:16;2.92;;;2.20;;
50104;SDS011;47690;39.202;-77.198;2022-09-09T15:39:56;1.92;;;1.77;;
50104;SDS011;47690;39.202;-77.198;2022-09-09T15:42:51;2.33;;;2.13;;
50104;SDS011;47690;39.202;-77.198;2022-09-09T15:45:24;2.37;;;2.17;;
50104;SDS011;47690;39.202;-77.198;2022-09-09T15:48:02;2.97;;;2.13;;
50104;SDS011;47690;39.202;-77.198;2022-09-09T15:50:35;2.25;;;2.05;;
50104;SDS011;47690;39.202;-77.198;2022-09-09T15:53:19;2.40;;;2.20;;
50104;SDS011;47690;39.202;-77.198;2022-09-09T15:56:06;2.28;;;2.08;;
50104;SDS011;47690;39.202;-77.198;2022-09-09T15:59:04;2.25;;;2.05;;
50104;SDS011;47690;39.202;-77.198;2022-09-09T16:01:35;2.40;;;2.20;;
50104;SDS011;47690;39.202;-77.198;2022-09-09T16:04:28;2.33;;;2.13;;
50104;SDS011;47690;39.202;-77.198;2022-09-09T16:07:04;2.73;;;2.40;;
50104;SDS011;47690;39.202;-77.198;2022-09-09T16:09:55;2.63;;;2.25;;
50104;SDS011;47690;39.202;-77.198;2022-09-09T16:12:31;2.40;;;2.00;;
50104;SDS011;47690;39.202;-77.198;2022-09-09T16:15:05;2.80;;;2.17;;
50104;SDS011;47690;39.202;-77.198;2022-09-09T16:17:45;2.10;;;1.90;;
50104;SDS011;47690;39.202;-77.198;2022-09-09T16:20:32;2.20;;;2.00;;
50104;SDS011;47690;39.202;-77.198;2022-09-09T16:23:21;2.90;;;2.10;;
50104;SDS011;47690;39.202;-77.198;2022-09-09T16:25:59;2.22;;;2.03;;
50104;SDS011;47690;39.202;-77.198;2022-09-09T16:28:33;2.60;;;2.40;;
50104;SDS011;47690;39.202;-77.198;2022-09-09T16:31:32;5.05;;;2.50;;
50104;SDS011;47690;39.202;-77.198;2022-09-09T16:34:16;2.45;;;2.25;;
50104;SDS011;47690;39.202;-77.198;2022-09-09T16:36:50;2.67;;;2.30;;
50104;SDS011;47690;39.202;-77.198;2022-09-09T16:39:51;2.30;;;2.10;;
50104;SDS011;47690;39.202;-77.198;2022-09-09T16:42:24;2.63;;;2.15;;
50104;SDS011;47690;39.202;-77.198;2022-09-09T16:45:01;2.47;;;2.28;;
50104;SDS011;47690;39.202;-77.198;2022-09-09T16:47:33;2.53;;;2.30;;
50104;SDS011;47690;39.202;-77.198;2022-09-09T16:50:06;2.50;;;2.17;;
50104;SDS011;47690;39.202;-77.198;2022-09-09T16:52:50;2.40;;;2.20;;
50104;SDS011;47690;39.202;-77.198;2022-09-09T16:57:58;3.40;;;2.20;;
50104;SDS011;47690;39.202;-77.198;2022-09-09T17:00:30;2.25;;;2.00;;
50104;SDS011;47690;39.202;-77.198;2022-09-09T17:03:03;2.50;;;2.30;;
50104;SDS011;47690;39.202;-77.198;2022-09-09T17:09:24;2.47;;;2.28;;
50104;SDS011;47690;39.202;-77.198;2022-09-09T17:12:10;2.30;;;2.10;;
50104;SDS011;47690;39.202;-77.198;2022-09-09T17:14:48;2.60;;;2.20;;
50104;SDS011;47690;39.202;-77.198;2022-09-09T17:17:23;2.60;;;2.33;;
50104;SDS011;47690;39.202;-77.198;2022-09-09T17:20:03;2.58;;;2.20;;
50104;SDS011;47690;39.202;-77.198;2022-09-09T17:23:26;2.42;;;2.22;;
50104;SDS011;47690;39.202;-77.198;2022-09-09T17:25:59;2.28;;;2.03;;
50104;SDS011;47690;39.202;-77.198;2022-09-09T17:28:31;2.38;;;2.17;;
50104;SDS011;47690;39.202;-77.198;2022-09-09T17:31:16;2.38;;;2.17;;
50104;SDS011;47690;39.202;-77.198;2022-09-09T17:33:50;3.58;;;2.10;;
50104;SDS011;47690;39.202;-77.198;2022-09-09T17:36:29;2.58;;;2.38;;
50104;SDS011;47690;39.202;-77.198;2022-09-09T17:44:10;2.25;;;2.05;;
50104;SDS011;47690;39.202;-77.198;2022-09-09T17:46:51;2.33;;;2.00;;
50104;SDS011;47690;39.202;-77.198;2022-09-09T17:49:28;2.40;;;2.20;;
50104;SDS011;47690;39.202;-77.198;2022-09-09T17:52:23;3.03;;;2.40;;
50104;SDS011;47690;39.202;-77.198;2022-09-09T17:54:55;2.70;;;2.40;;
50104;SDS011;47690;39.202;-77.198;2022-09-09T17:58:00;2.38;;;2.17;;
50104;SDS011;47690;39.202;-77.198;2022-09-09T18:00:34;2.40;;;2.20;;
50104;SDS011;47690;39.202;-77.198;2022-09-09T18:03:10;4.07;;;2.38;;
50104;SDS011;47690;39.202;-77.198;2022-09-09T18:05:52;2.47;;;2.28;;
50104;SDS011;47690;39.202;-77.198;2022-09-09T18:08:30;2.88;;;2.33;;
50104;SDS011;47690;39.202;-77.198;2022-09-09T18:11:20;2.30;;;2.10;;
50104;SDS011;47690;39.202;-77.198;2022-09-09T18:14:04;2.72;;;2.40;;
50104;SDS011;47690;39.202;-77.198;2022-09-09T18:17:22;2.63;;;2.42;;
50104;SDS011;47690;39.202;-77.198;2022-09-09T18:19:57;2.80;;;2.20;;
50104;SDS011;47690;39.202;-77.198;2022-09-09T18:25:39;2.57;;;2.37;;
50104;SDS011;47690;39.202;-77.198;2022-09-09T18:28:20;4.57;;;2.70;;
50104;SDS011;47690;39.202;-77.198;2022-09-09T18:30:54;2.65;;;2.40;;
50104;SDS011;47690;39.202;-77.198;2022-09-09T18:33:28;2.60;;;2.40;;
50104;SDS011;47690;39.202;-77.198;2022-09-09T18:36:04;2.72;;;2.40;;
50104;SDS011;47690;39.202;-77.198;2022-09-09T18:41:56;2.33;;;2.13;;
50104;SDS011;47690;39.202;-77.198;2022-09-09T18:47:47;2.83;;;2.20;;
50104;SDS011;47690;39.202;-77.198;2022-09-09T18:50:20;2.80;;;2.30;;
50104;SDS011;47690;39.202;-77.198;2022-09-09T18:52:59;2.92;;;2.63;;
50104;SDS011;47690;39.202;-77.198;2022-09-09T18:55:28;5.32;;;2.50;;
50104;SDS011;47690;39.202;-77.198;2022-09-09T18:58:06;2.80;;;2.50;;
50104;SDS011;47690;39.202;-77.198;2022-09-09T19:00:40;3.53;;;2.72;;
50104;SDS011;47690;39.202;-77.198;2022-09-09T19:03:24;2.50;;;2.30;;
50104;SDS011;47690;39.202;-77.198;2022-09-09T19:08:34;2.50;;;2.30;;
50104;SDS011;47690;39.202;-77.198;2022-09-09T19:11:11;2.25;;;2.05;;
50104;SDS011;47690;39.202;-77.198;2022-09-09T19:13:52;2.50;;;2.28;;
50104;SDS011;47690;39.202;-77.198;2022-09-09T19:16:24;2.75;;;2.40;;
50104;SDS011;47690;39.202;-77.198;2022-09-09T19:19:00;3.10;;;2.58;;
50104;SDS011;47690;39.202;-77.198;2022-09-09T19:21:31;2.53;;;2.33;;
50104;SDS011;47690;39.202;-77.198;2022-09-09T19:24:11;2.77;;;2.50;;
50104;SDS011;47690;39.202;-77.198;2022-09-09T19:26:51;3.00;;;2.50;;
50104;SDS011;47690;39.202;-77.198;2022-09-09T19:29:26;2.90;;;2.40;;
50104;SDS011;47690;39.202;-77.198;2022-09-09T19:31:58;2.95;;;2.40;;
50104;SDS011;47690;39.202;-77.198;2022-09-09T19:34:54;3.47;;;2.70;;